createdAt,value
2022-12-23T00:00:58.882Z,36.00
2022-12-23T00:03:29.736Z,40.90
2022-12-23T00:05:59.436Z,41.10
2022-12-23T00:08:28.744Z,40.20
2022-12-23T00:10:57.909Z,46.20
2022-12-23T00:13:45.186Z,38.20
2022-12-23T00:16:15.561Z,44.30
2022-12-23T00:18:44.357Z,41.00
2022-12-23T00:21:16.413Z,35.60
2022-12-23T00:23:58.694Z,41.10
2022-12-23T00:26:41.266Z,39.80
2022-12-23T00:29:24.250Z,38.00
2022-12-23T00:31:53.243Z,40.70
2022-12-23T00:34:35.904Z,39.40
2022-12-23T00:37:05.097Z,41.80
2022-12-23T00:39:55.102Z,36.70
2022-12-23T00:42:43.428Z,44.80
2022-12-23T00:45:18.114Z,49.00
2022-12-23T00:48:19.447Z,40.70
2022-12-23T00:50:53.270Z,40.50
2022-12-23T00:53:22.429Z,42.50
2022-12-23T00:56:05.105Z,45.80
2022-12-23T00:58:47.861Z,39.60
2022-12-23T01:01:35.436Z,37.70
2022-12-23T01:04:23.844Z,40.20
2022-12-23T01:07:07.378Z,39.10
2022-12-23T01:09:49.686Z,38.40
2022-12-23T01:12:18.812Z,39.00
2022-12-23T01:15:01.371Z,37.90
2022-12-23T01:17:44.094Z,42.70
2022-12-23T01:20:26.397Z,37.40
2022-12-23T01:22:55.689Z,37.90
2022-12-23T01:25:25.119Z,37.80
2022-12-23T01:27:53.881Z,37.40
2022-12-23T01:30:23.379Z,40.80
2022-12-23T01:33:05.676Z,34.10
2022-12-23T01:35:34.995Z,38.10
2022-12-23T01:38:18.192Z,39.80
2022-12-23T01:40:47.173Z,37.70
2022-12-23T01:43:18.507Z,35.70
2022-12-23T01:46:01.361Z,40.30
2022-12-23T01:48:48.022Z,40.60
2022-12-23T01:51:23.936Z,44.90
2022-12-23T01:54:06.329Z,40.20
2022-12-23T01:56:39.355Z,35.50
2022-12-23T01:59:40.699Z,31.90
2022-12-23T02:02:42.711Z,36.90
2022-12-23T02:05:12.988Z,39.30
2022-12-23T02:08:01.021Z,42.40
2022-12-23T02:10:40.708Z,38.70
2022-12-23T02:13:25.172Z,49.70
2022-12-23T02:16:22.373Z,41.30
2022-12-23T02:19:29.973Z,42.90
2022-12-23T02:22:21.547Z,38.30
2022-12-23T02:24:56.141Z,48.50
2022-12-23T02:27:32.937Z,45.90
2022-12-23T02:30:21.040Z,38.50
2022-12-23T02:33:09.097Z,45.20
2022-12-23T02:36:04.038Z,42.00
2022-12-23T02:38:57.223Z,41.00
2022-12-23T02:42:07.630Z,41.10
2022-12-23T02:45:09.399Z,31.30
2022-12-23T02:47:43.697Z,45.80
2022-12-23T02:50:19.643Z,38.00
2022-12-23T02:53:14.465Z,38.70
2022-12-23T02:55:59.154Z,47.80
2022-12-23T02:58:36.102Z,39.80
2022-12-23T03:01:07.569Z,45.50
2022-12-23T03:03:38.678Z,42.80
2022-12-23T03:06:21.131Z,44.70
2022-12-23T03:09:03.450Z,42.10
2022-12-23T03:12:12.357Z,43.30
2022-12-23T03:14:51.834Z,37.80
2022-12-23T03:17:48.517Z,45.50
2022-12-23T03:20:43.617Z,38.30
2022-12-23T03:23:30.946Z,41.60
2022-12-23T03:26:24.454Z,36.10
2022-12-23T03:29:25.980Z,39.90
2022-12-23T03:32:00.178Z,36.80
2022-12-23T03:34:47.926Z,42.60
2022-12-23T03:37:19.351Z,40.80
2022-12-23T03:40:31.395Z,40.70
2022-12-23T03:43:25.398Z,42.90
2022-12-23T03:46:07.858Z,42.60
2022-12-23T03:48:55.000Z,34.40
2022-12-23T03:51:30.443Z,41.20
2022-12-23T03:54:07.734Z,44.30
2022-12-23T03:56:59.711Z,43.80
2022-12-23T03:59:41.651Z,41.30
2022-12-23T04:02:25.454Z,47.10
2022-12-23T04:05:30.336Z,46.80
2022-12-23T04:08:07.533Z,34.40
2022-12-23T04:10:36.912Z,37.60
2022-12-23T04:13:19.362Z,39.80
2022-12-23T04:16:03.700Z,44.60
2022-12-23T04:18:32.361Z,38.30
2022-12-23T04:21:01.697Z,39.20
2022-12-23T04:23:30.468Z,43.30
2022-12-23T04:25:59.231Z,32.60
2022-12-23T04:28:27.946Z,36.50
2022-12-23T04:31:10.961Z,44.00
2022-12-23T04:33:53.708Z,36.00
2022-12-23T04:36:36.413Z,37.20
2022-12-23T04:39:19.107Z,39.00
2022-12-23T04:41:48.940Z,41.00
2022-12-23T04:44:18.201Z,41.70
2022-12-23T04:47:00.952Z,38.70
2022-12-23T04:49:43.279Z,38.50
2022-12-23T04:52:25.583Z,48.10
2022-12-23T04:54:54.342Z,38.60
2022-12-23T04:57:36.929Z,43.40
2022-12-23T05:00:19.646Z,34.70
2022-12-23T05:02:49.110Z,39.20
2022-12-23T05:05:31.632Z,37.20
2022-12-23T05:08:05.690Z,35.80
2022-12-23T05:10:34.986Z,36.80
2022-12-23T05:13:17.799Z,31.30
2022-12-23T05:16:00.305Z,35.20
2022-12-23T05:18:29.331Z,37.90
2022-12-23T05:21:12.218Z,35.60
2022-12-23T05:23:41.066Z,35.10
2022-12-23T05:26:10.512Z,40.80
2022-12-23T05:28:39.620Z,37.60
2022-12-23T05:31:22.571Z,34.30
2022-12-23T05:34:06.814Z,39.30
2022-12-23T05:36:36.216Z,37.00
2022-12-23T05:39:05.490Z,38.90
2022-12-23T05:41:34.170Z,43.80
2022-12-23T05:44:16.796Z,46.30
2022-12-23T05:46:59.149Z,43.50
2022-12-23T05:49:28.036Z,41.90
2022-12-23T05:52:10.300Z,37.00
2022-12-23T05:54:52.458Z,41.90
2022-12-23T05:57:22.424Z,40.70
2022-12-23T05:59:50.852Z,38.00
2022-12-23T06:02:22.701Z,40.60
2022-12-23T06:05:05.792Z,47.60
2022-12-23T06:07:35.071Z,44.80
2022-12-23T06:10:18.215Z,40.20
2022-12-23T06:12:47.174Z,44.70
2022-12-23T06:15:15.877Z,38.80
2022-12-23T06:17:45.041Z,44.40
2022-12-23T06:20:20.378Z,41.40
2022-12-23T06:22:50.330Z,46.00
2022-12-23T06:25:19.532Z,40.90
2022-12-23T06:28:02.386Z,48.90
2022-12-23T06:30:44.684Z,52.50
2022-12-23T06:33:13.624Z,49.70
2022-12-23T06:35:43.681Z,41.50
2022-12-23T06:38:26.016Z,51.00
2022-12-23T06:40:55.091Z,45.40
2022-12-23T06:43:23.831Z,62.00
2022-12-23T06:45:52.875Z,50.70
2022-12-23T06:48:21.955Z,47.10
2022-12-23T06:50:51.200Z,39.00
2022-12-23T06:53:21.396Z,45.30
2022-12-23T06:56:04.730Z,47.70
2022-12-23T06:58:34.009Z,45.20
2022-12-23T07:01:02.626Z,48.70
2022-12-23T07:03:31.894Z,47.60
2022-12-23T07:06:01.224Z,43.50
2022-12-23T07:08:43.818Z,45.80
2022-12-23T07:11:26.630Z,46.50
2022-12-23T07:13:55.920Z,48.80
2022-12-23T07:16:38.816Z,50.70
2022-12-23T07:19:21.215Z,45.70
2022-12-23T07:21:50.457Z,49.20
2022-12-23T07:24:33.285Z,45.50
2022-12-23T07:27:02.027Z,45.70
2022-12-23T07:29:44.703Z,40.30
2022-12-23T07:32:13.896Z,38.50
2022-12-23T07:34:56.699Z,37.90
2022-12-23T07:37:25.900Z,40.20
2022-12-23T07:39:54.835Z,38.00
2022-12-23T07:45:12.513Z,36.20
2022-12-23T07:47:41.117Z,46.40
2022-12-23T07:50:24.217Z,47.40
2022-12-23T07:52:54.316Z,39.80
2022-12-23T07:55:23.866Z,49.80
2022-12-23T07:58:06.579Z,42.50
2022-12-23T08:00:48.863Z,43.20
2022-12-23T08:03:31.708Z,43.20
2022-12-23T08:06:05.994Z,47.80
2022-12-23T08:08:48.750Z,49.00
2022-12-23T08:11:18.064Z,50.60
2022-12-23T08:13:48.702Z,47.00
2022-12-23T08:16:17.734Z,49.40
2022-12-23T08:18:46.413Z,49.40
2022-12-23T08:21:19.587Z,51.10
2022-12-23T08:24:01.811Z,54.30
2022-12-23T08:26:30.845Z,55.90
2022-12-23T08:29:01.079Z,49.30
2022-12-23T08:31:33.920Z,51.70
2022-12-23T08:34:02.793Z,51.00
2022-12-23T08:36:34.638Z,46.70
2022-12-23T08:39:08.390Z,54.80
2022-12-23T08:44:20.313Z,61.30
2022-12-23T08:46:49.553Z,68.30
2022-12-23T08:49:32.071Z,63.00
2022-12-23T08:52:01.419Z,71.60
2022-12-23T08:54:44.072Z,62.80
2022-12-23T08:57:26.863Z,60.80
2022-12-23T09:00:09.985Z,63.40
2022-12-23T09:02:38.882Z,64.30
2022-12-23T09:05:08.281Z,70.90
2022-12-23T09:07:37.397Z,67.40
2022-12-23T09:10:19.845Z,74.00
2022-12-23T09:13:02.210Z,73.70
2022-12-23T09:15:31.585Z,76.40
2022-12-23T09:18:14.297Z,77.10
2022-12-23T09:20:42.729Z,81.80
2022-12-23T09:23:25.977Z,77.20
2022-12-23T09:25:56.265Z,77.00
2022-12-23T09:28:26.179Z,79.90
2022-12-23T09:30:55.508Z,85.00
2022-12-23T09:33:38.433Z,82.20
2022-12-23T09:36:22.791Z,82.40
2022-12-23T09:38:57.091Z,87.50
2022-12-23T09:41:49.959Z,73.30
2022-12-23T09:44:37.628Z,88.60
2022-12-23T09:47:16.364Z,93.10
2022-12-23T09:49:50.395Z,85.10
2022-12-23T09:52:36.361Z,92.40
2022-12-23T09:55:22.648Z,83.30
2022-12-23T09:58:01.733Z,82.30
2022-12-23T10:00:38.852Z,80.30
2022-12-23T10:03:27.163Z,86.20
2022-12-23T10:06:23.134Z,78.20
2022-12-23T10:09:08.371Z,87.30
2022-12-23T10:11:44.760Z,92.90
2022-12-23T10:14:25.243Z,83.10
2022-12-23T10:17:13.509Z,86.90
2022-12-23T10:20:01.496Z,86.00
2022-12-23T10:22:38.778Z,82.00
2022-12-23T10:25:39.186Z,79.70
2022-12-23T10:28:21.549Z,81.50
2022-12-23T10:31:31.059Z,72.00
2022-12-23T10:34:09.731Z,80.90
2022-12-23T10:36:44.660Z,69.20
2022-12-23T10:39:35.724Z,74.20
2022-12-23T10:42:31.838Z,73.40
2022-12-23T10:45:19.662Z,66.60
2022-12-23T10:48:33.182Z,71.90
2022-12-23T10:51:16.272Z,63.90
2022-12-23T10:53:52.496Z,68.70
2022-12-23T10:56:22.405Z,58.10
2022-12-23T10:59:07.858Z,55.80
2022-12-23T11:01:36.912Z,59.20
2022-12-23T11:04:28.701Z,59.40
2022-12-23T11:07:44.628Z,56.10
2022-12-23T11:10:34.908Z,50.60
2022-12-23T11:13:04.058Z,51.90
2022-12-23T11:15:35.024Z,50.10
2022-12-23T11:18:08.307Z,47.10
2022-12-23T11:20:38.645Z,49.00
2022-12-23T11:23:47.982Z,51.90
2022-12-23T11:26:21.169Z,51.50
2022-12-23T11:28:53.536Z,55.00
2022-12-23T11:31:30.712Z,56.20
2022-12-23T11:34:02.626Z,56.70
2022-12-23T11:36:32.819Z,52.70
2022-12-23T11:39:07.405Z,64.00
2022-12-23T11:41:43.618Z,58.40
2022-12-23T11:44:41.083Z,60.70
2022-12-23T11:47:22.316Z,57.20
2022-12-23T11:49:54.140Z,59.60
2022-12-23T11:52:36.401Z,61.20
2022-12-23T11:55:06.384Z,62.30
2022-12-23T11:57:46.290Z,58.50
2022-12-23T12:00:29.312Z,65.10
2022-12-23T12:03:03.767Z,68.00
2022-12-23T12:05:37.832Z,68.80
2022-12-23T12:08:12.440Z,69.20
2022-12-23T12:10:43.155Z,70.10
2022-12-23T12:13:38.283Z,75.40
2022-12-23T12:16:33.172Z,76.10
2022-12-23T12:19:12.657Z,78.40
2022-12-23T12:21:41.359Z,81.80
2022-12-23T12:24:22.906Z,74.60
2022-12-23T12:27:07.629Z,80.00
2022-12-23T12:29:57.816Z,78.60
2022-12-23T12:32:33.457Z,75.40
2022-12-23T12:35:23.280Z,81.20
2022-12-23T12:38:24.547Z,83.50
2022-12-23T12:41:03.154Z,79.30
2022-12-23T12:44:00.851Z,84.10
2022-12-23T12:46:43.332Z,82.10
2022-12-23T12:49:35.220Z,81.90
2022-12-23T12:52:20.103Z,76.50
2022-12-23T12:55:24.363Z,58.80
2022-12-23T12:58:24.691Z,55.20
2022-12-23T13:01:13.476Z,53.30
2022-12-23T13:04:20.063Z,37.70
2022-12-23T13:07:26.691Z,42.00
2022-12-23T13:10:03.820Z,37.80
2022-12-23T13:12:50.662Z,42.30
2022-12-23T13:15:28.593Z,42.80
2022-12-23T13:18:08.184Z,41.30
2022-12-23T13:21:01.308Z,43.80
2022-12-23T13:23:49.010Z,42.10
2022-12-23T13:26:31.393Z,33.40
2022-12-23T13:29:20.098Z,37.10
2022-12-23T13:32:31.215Z,40.00
2022-12-23T13:35:51.364Z,32.40
2022-12-23T13:38:39.393Z,38.80
2022-12-23T13:41:21.922Z,43.70
2022-12-23T13:44:00.732Z,35.70
2022-12-23T13:46:52.106Z,44.40
2022-12-23T13:49:40.714Z,39.40
2022-12-23T13:52:29.408Z,47.90
2022-12-23T13:55:17.443Z,45.10
2022-12-23T13:58:15.361Z,38.50
2022-12-23T14:00:45.089Z,34.50
2022-12-23T14:03:34.854Z,45.20
2022-12-23T14:06:26.633Z,42.70
2022-12-23T14:08:56.700Z,50.80
2022-12-23T14:11:31.071Z,50.60
2022-12-23T14:14:15.413Z,54.20
2022-12-23T14:17:30.807Z,85.70
2022-12-23T14:20:08.800Z,101.50
2022-12-23T14:23:28.745Z,97.40
2022-12-23T14:26:16.289Z,88.70
2022-12-23T14:29:05.223Z,72.50
2022-12-23T14:31:44.929Z,89.60
2022-12-23T14:34:19.551Z,71.50
2022-12-23T14:37:26.009Z,66.60
2022-12-23T14:39:54.745Z,60.20
2022-12-23T14:42:43.374Z,50.80
2022-12-23T14:45:33.836Z,41.70
2022-12-23T14:48:37.162Z,37.50
2022-12-23T14:51:09.533Z,36.70
2022-12-23T14:53:58.427Z,36.20
2022-12-23T14:56:41.487Z,41.70
2022-12-23T14:59:17.812Z,34.30
2022-12-23T15:02:22.038Z,42.30
2022-12-23T15:04:58.072Z,39.40
2022-12-23T15:07:33.460Z,33.30
2022-12-23T15:10:22.031Z,39.10
2022-12-23T15:13:06.727Z,36.30
2022-12-23T15:16:00.888Z,38.10
2022-12-23T15:18:30.923Z,80.30
2022-12-23T15:21:13.927Z,84.70
2022-12-23T15:23:55.053Z,76.50
2022-12-23T15:26:27.918Z,96.80
2022-12-23T15:29:10.389Z,78.80
2022-12-23T15:31:42.861Z,75.90
2022-12-23T15:34:31.321Z,77.90
2022-12-23T15:37:00.907Z,96.40
2022-12-23T15:39:45.334Z,116.80
2022-12-23T15:42:35.995Z,74.10
2022-12-23T15:45:39.294Z,82.10
2022-12-23T15:48:25.750Z,76.20
2022-12-23T15:51:14.452Z,84.30
2022-12-23T15:53:47.740Z,100.50
2022-12-23T15:56:24.449Z,104.50
2022-12-23T15:58:55.145Z,83.80
2022-12-23T16:01:25.823Z,82.00
2022-12-23T16:04:09.276Z,93.20
2022-12-23T16:06:39.686Z,121.10
2022-12-23T16:09:17.849Z,106.70
2022-12-23T16:12:20.063Z,97.70
2022-12-23T16:15:37.202Z,106.90
2022-12-23T16:18:23.236Z,105.90
2022-12-23T16:20:59.870Z,100.00
2022-12-23T16:23:32.021Z,125.40
2022-12-23T16:26:14.469Z,104.10
2022-12-23T16:28:48.317Z,124.80
2022-12-23T16:31:19.811Z,118.10
2022-12-23T16:34:07.306Z,131.60
2022-12-23T16:36:50.307Z,139.30
2022-12-23T16:39:23.519Z,140.90
2022-12-23T16:41:52.607Z,123.00
2022-12-23T16:44:35.799Z,145.90
2022-12-23T16:47:15.788Z,135.80
2022-12-23T16:49:45.353Z,153.40
2022-12-23T16:52:28.137Z,163.30
2022-12-23T16:54:56.648Z,182.90
2022-12-23T16:57:26.113Z,167.80
2022-12-23T16:59:54.836Z,143.90
2022-12-23T17:02:28.560Z,141.40
2022-12-23T17:04:57.392Z,141.10
2022-12-23T17:07:27.426Z,110.90
2022-12-23T17:09:56.396Z,98.90
2022-12-23T17:12:25.467Z,100.80
2022-12-23T17:14:54.155Z,92.00
2022-12-23T17:17:26.018Z,86.10
2022-12-23T17:19:56.531Z,82.60
2022-12-23T17:22:26.269Z,83.70
2022-12-23T17:24:54.997Z,93.30
2022-12-23T17:27:25.419Z,95.20
2022-12-23T17:29:54.819Z,84.80
2022-12-23T17:32:24.092Z,100.60
2022-12-23T17:34:52.930Z,105.60
2022-12-23T17:37:37.320Z,98.20
2022-12-23T17:40:07.781Z,89.30
2022-12-23T17:42:50.458Z,89.90
2022-12-23T17:45:26.724Z,96.80
2022-12-23T17:47:55.628Z,102.30
2022-12-23T17:50:25.429Z,97.20
2022-12-23T17:52:54.570Z,100.50
2022-12-23T17:55:36.751Z,93.20
2022-12-23T17:58:06.323Z,87.20
2022-12-23T18:00:49.408Z,84.20
2022-12-23T18:03:23.670Z,71.80
2022-12-23T18:06:01.286Z,88.70
2022-12-23T18:08:30.692Z,77.30
2022-12-23T18:11:00.181Z,69.80
2022-12-23T18:13:42.663Z,69.10
2022-12-23T18:16:13.234Z,67.20
2022-12-23T18:18:46.585Z,70.70
2022-12-23T18:21:23.013Z,72.30
2022-12-23T18:23:54.214Z,70.60
2022-12-23T18:26:23.261Z,69.60
2022-12-23T18:28:54.741Z,60.70
2022-12-23T18:31:27.643Z,61.70
2022-12-23T18:33:56.708Z,64.60
2022-12-23T18:36:39.293Z,70.60
2022-12-23T18:39:08.029Z,73.60
2022-12-23T18:41:50.645Z,73.80
2022-12-23T18:44:33.365Z,71.40
2022-12-23T18:47:02.343Z,70.70
2022-12-23T18:49:32.306Z,73.40
2022-12-23T18:52:12.889Z,75.90
2022-12-23T18:54:42.067Z,83.20
2022-12-23T18:57:11.906Z,86.40
2022-12-23T18:59:41.271Z,96.90
2022-12-23T19:02:15.474Z,97.20
2022-12-23T19:04:58.722Z,92.90
2022-12-23T19:08:25.922Z,116.90
2022-12-23T19:10:56.380Z,121.30
2022-12-23T19:13:25.909Z,112.30
2022-12-23T19:15:55.020Z,115.90
2022-12-23T19:18:24.426Z,142.70
2022-12-23T19:20:53.114Z,146.20
2022-12-23T19:23:22.110Z,155.20
2022-12-23T19:26:06.614Z,137.70
2022-12-23T19:28:37.915Z,124.60
2022-12-23T19:31:12.168Z,134.70
2022-12-23T19:33:43.335Z,125.70
2022-12-23T19:36:14.788Z,141.90
2022-12-23T19:38:58.475Z,139.20
2022-12-23T19:41:27.737Z,117.50
2022-12-23T19:43:56.639Z,127.40
2022-12-23T19:46:25.670Z,138.00
2022-12-23T19:48:54.726Z,92.50
2022-12-23T19:51:37.556Z,96.70
2022-12-23T19:54:06.741Z,93.00
2022-12-23T19:56:35.710Z,110.10
2022-12-23T19:59:04.649Z,84.90
2022-12-23T20:01:34.071Z,92.60
2022-12-23T20:04:03.555Z,90.70
2022-12-23T20:06:35.619Z,83.60
2022-12-23T20:09:18.374Z,84.30
2022-12-23T20:11:49.456Z,98.10
2022-12-23T20:14:34.166Z,98.60
2022-12-23T20:17:04.136Z,93.10
2022-12-23T20:19:33.188Z,91.80
2022-12-23T20:22:01.980Z,97.40
2022-12-23T20:24:33.701Z,103.10
2022-12-23T20:27:05.156Z,102.80
2022-12-23T20:29:51.756Z,104.90
2022-12-23T20:32:20.425Z,100.30
2022-12-23T20:34:50.608Z,119.40
2022-12-23T20:37:19.337Z,111.60
2022-12-23T20:39:48.401Z,104.60
2022-12-23T20:42:31.441Z,109.40
2022-12-23T20:45:00.425Z,105.50
2022-12-23T20:47:29.370Z,107.10
2022-12-23T20:49:58.188Z,116.30
2022-12-23T20:52:40.502Z,112.40
2022-12-23T20:55:09.546Z,108.30
2022-12-23T20:57:38.173Z,124.50
2022-12-23T21:00:08.566Z,116.90
2022-12-23T21:02:50.976Z,114.90
2022-12-23T21:05:19.927Z,128.10
2022-12-23T21:07:48.631Z,127.10
2022-12-23T21:10:17.828Z,171.00
2022-12-23T21:12:46.641Z,121.10
2022-12-23T21:15:15.937Z,120.40
2022-12-23T21:17:45.129Z,111.80
2022-12-23T21:20:14.247Z,112.20
2022-12-23T21:22:43.649Z,104.90
2022-12-23T21:25:12.277Z,109.80
2022-12-23T21:27:54.476Z,111.50
2022-12-23T21:30:23.267Z,111.20
2022-12-23T21:33:05.518Z,114.80
2022-12-23T21:35:39.021Z,107.40
2022-12-23T21:38:11.235Z,116.00
2022-12-23T21:40:43.702Z,121.00
2022-12-23T21:43:14.467Z,122.70
2022-12-23T21:45:42.990Z,113.60
2022-12-23T21:48:11.507Z,116.40
2022-12-23T21:50:40.065Z,106.20
2022-12-23T21:53:08.530Z,110.70
2022-12-23T21:55:37.459Z,115.00
2022-12-23T21:58:06.812Z,108.30
2022-12-23T22:00:35.478Z,114.60
2022-12-23T22:03:04.498Z,104.20
2022-12-23T22:05:33.513Z,107.70
2022-12-23T22:08:02.562Z,98.00
2022-12-23T22:10:31.857Z,116.00
2022-12-23T22:13:00.588Z,101.90
2022-12-23T22:15:43.928Z,102.80
2022-12-23T22:18:26.301Z,99.40
2022-12-23T22:21:13.922Z,93.30
2022-12-23T22:23:43.232Z,101.40
2022-12-23T22:26:18.835Z,87.00
2022-12-23T22:29:07.432Z,109.20
2022-12-23T22:31:51.085Z,102.30
2022-12-23T22:34:33.720Z,102.90
2022-12-23T22:37:02.342Z,115.50
2022-12-23T22:39:31.160Z,145.00
2022-12-23T22:41:59.698Z,138.90
2022-12-23T22:44:28.621Z,126.90
2022-12-23T22:47:11.141Z,117.50
2022-12-23T22:49:39.734Z,110.00
2022-12-23T22:52:08.654Z,120.70
2022-12-23T22:54:37.923Z,109.10
2022-12-23T22:57:07.092Z,107.10
2022-12-23T22:59:35.979Z,105.00
2022-12-23T23:02:05.440Z,109.90
2022-12-23T23:04:48.349Z,100.60
2022-12-23T23:07:17.203Z,106.30
2022-12-23T23:09:45.909Z,95.70
2022-12-23T23:12:28.121Z,102.50
2022-12-23T23:14:56.860Z,93.40
2022-12-23T23:17:39.447Z,103.60
2022-12-23T23:20:09.481Z,86.10
2022-12-23T23:22:38.373Z,85.00
2022-12-23T23:25:21.156Z,92.20
2022-12-23T23:28:04.387Z,94.90
2022-12-23T23:30:46.928Z,92.50
2022-12-23T23:33:16.709Z,101.40
2022-12-23T23:35:46.128Z,94.70
2022-12-23T23:38:15.108Z,81.90
2022-12-23T23:40:48.168Z,82.70
2022-12-23T23:43:16.944Z,92.40
2022-12-23T23:45:59.874Z,84.40
2022-12-23T23:48:42.295Z,79.50
2022-12-23T23:51:12.883Z,77.30
2022-12-23T23:53:41.883Z,91.10
2022-12-23T23:56:11.148Z,90.90
2022-12-23T23:58:40.457Z,102.20
